sensor_id;sensor_type;location;lat;lon;timestamp;P1;durP1;ratioP1;P2;durP2;ratioP2
17686;SDS011;8962;52.538;13.266;2023-11-21T00:00:53;17.67;;;10.25;;
17686;SDS011;8962;52.538;13.266;2023-11-21T00:14:48;18.83;;;10.25;;
17686;SDS011;8962;52.538;13.266;2023-11-21T00:24:44;21.33;;;10.43;;
17686;SDS011;8962;52.538;13.266;2023-11-21T00:27:12;27.40;;;11.80;;
17686;SDS011;8962;52.538;13.266;2023-11-21T00:29:41;29.10;;;13.93;;
17686;SDS011;8962;52.538;13.266;2023-11-21T00:32:10;32.88;;;13.00;;
17686;SDS011;8962;52.538;13.266;2023-11-21T00:34:37;28.17;;;13.05;;
17686;SDS011;8962;52.538;13.266;2023-11-21T00:37:05;30.92;;;14.15;;
17686;SDS011;8962;52.538;13.266;2023-11-21T00:39:33;34.60;;;14.25;;
17686;SDS011;8962;52.538;13.266;2023-11-21T00:42:00;35.85;;;15.07;;
17686;SDS011;8962;52.538;13.266;2023-11-21T00:44:27;40.00;;;15.00;;
17686;SDS011;8962;52.538;13.266;2023-11-21T00:46:54;35.67;;;13.40;;
17686;SDS011;8962;52.538;13.266;2023-11-21T00:49:23;30.35;;;13.68;;
17686;SDS011;8962;52.538;13.266;2023-11-21T00:51:50;37.75;;;14.00;;
17686;SDS011;8962;52.538;13.266;2023-11-21T00:54:17;29.98;;;12.07;;
17686;SDS011;8962;52.538;13.266;2023-11-21T00:56:44;29.27;;;12.00;;
17686;SDS011;8962;52.538;13.266;2023-11-21T00:59:12;30.92;;;12.32;;
17686;SDS011;8962;52.538;13.266;2023-11-21T01:01:40;27.60;;;12.48;;
17686;SDS011;8962;52.538;13.266;2023-11-21T01:04:09;24.58;;;11.23;;
17686;SDS011;8962;52.538;13.266;2023-11-21T01:06:38;29.92;;;12.57;;
17686;SDS011;8962;52.538;13.266;2023-11-21T01:09:08;28.40;;;12.65;;
17686;SDS011;8962;52.538;13.266;2023-11-21T01:11:36;28.13;;;12.57;;
17686;SDS011;8962;52.538;13.266;2023-11-21T01:14:03;28.83;;;12.10;;
17686;SDS011;8962;52.538;13.266;2023-11-21T01:16:31;29.13;;;12.88;;
17686;SDS011;8962;52.538;13.266;2023-11-21T01:18:59;27.30;;;12.35;;
17686;SDS011;8962;52.538;13.266;2023-11-21T01:21:28;29.63;;;12.98;;
17686;SDS011;8962;52.538;13.266;2023-11-21T01:23:57;32.03;;;13.27;;
17686;SDS011;8962;52.538;13.266;2023-11-21T01:26:24;29.95;;;13.00;;
17686;SDS011;8962;52.538;13.266;2023-11-21T01:28:51;31.13;;;13.93;;
17686;SDS011;8962;52.538;13.266;2023-11-21T01:31:19;29.60;;;13.05;;
17686;SDS011;8962;52.538;13.266;2023-11-21T01:33:47;28.35;;;12.13;;
17686;SDS011;8962;52.538;13.266;2023-11-21T01:36:14;27.95;;;12.77;;
17686;SDS011;8962;52.538;13.266;2023-11-21T01:38:40;28.70;;;12.55;;
17686;SDS011;8962;52.538;13.266;2023-11-21T01:41:08;27.48;;;12.25;;
17686;SDS011;8962;52.538;13.266;2023-11-21T01:43:36;31.98;;;12.48;;
17686;SDS011;8962;52.538;13.266;2023-11-21T01:46:04;25.25;;;10.70;;
17686;SDS011;8962;52.538;13.266;2023-11-21T01:48:32;21.63;;;10.48;;
17686;SDS011;8962;52.538;13.266;2023-11-21T01:51:00;22.02;;;11.13;;
17686;SDS011;8962;52.538;13.266;2023-11-21T01:53:28;22.13;;;10.38;;
17686;SDS011;8962;52.538;13.266;2023-11-21T01:55:55;24.42;;;10.77;;
17686;SDS011;8962;52.538;13.266;2023-11-21T01:58:24;22.80;;;10.98;;
17686;SDS011;8962;52.538;13.266;2023-11-21T02:00:51;19.88;;;9.88;;
17686;SDS011;8962;52.538;13.266;2023-11-21T02:03:20;23.80;;;10.80;;
17686;SDS011;8962;52.538;13.266;2023-11-21T02:05:47;19.13;;;9.57;;
17686;SDS011;8962;52.538;13.266;2023-11-21T02:08:15;17.45;;;8.65;;
17686;SDS011;8962;52.538;13.266;2023-11-21T02:10:42;15.20;;;8.57;;
17686;SDS011;8962;52.538;13.266;2023-11-21T02:13:09;17.17;;;8.35;;
17686;SDS011;8962;52.538;13.266;2023-11-21T02:15:38;14.82;;;8.85;;
17686;SDS011;8962;52.538;13.266;2023-11-21T02:18:06;14.30;;;9.00;;
17686;SDS011;8962;52.538;13.266;2023-11-21T02:20:35;15.50;;;9.23;;
17686;SDS011;8962;52.538;13.266;2023-11-21T02:23:05;16.77;;;9.20;;
17686;SDS011;8962;52.538;13.266;2023-11-21T02:25:33;20.35;;;8.60;;
17686;SDS011;8962;52.538;13.266;2023-11-21T02:28:02;14.65;;;9.10;;
17686;SDS011;8962;52.538;13.266;2023-11-21T02:30:32;17.13;;;9.05;;
17686;SDS011;8962;52.538;13.266;2023-11-21T02:32:59;15.38;;;9.27;;
17686;SDS011;8962;52.538;13.266;2023-11-21T02:35:26;16.05;;;9.30;;
17686;SDS011;8962;52.538;13.266;2023-11-21T02:37:53;14.13;;;9.00;;
17686;SDS011;8962;52.538;13.266;2023-11-21T02:40:25;14.50;;;8.65;;
17686;SDS011;8962;52.538;13.266;2023-11-21T02:42:52;15.05;;;9.05;;
17686;SDS011;8962;52.538;13.266;2023-11-21T02:45:20;17.88;;;9.35;;
17686;SDS011;8962;52.538;13.266;2023-11-21T02:47:47;14.68;;;9.60;;
17686;SDS011;8962;52.538;13.266;2023-11-21T02:50:15;13.73;;;8.93;;
17686;SDS011;8962;52.538;13.266;2023-11-21T02:52:45;14.20;;;8.52;;
17686;SDS011;8962;52.538;13.266;2023-11-21T02:55:13;14.80;;;9.30;;
17686;SDS011;8962;52.538;13.266;2023-11-21T02:57:42;14.23;;;8.88;;
17686;SDS011;8962;52.538;13.266;2023-11-21T03:00:10;14.05;;;8.77;;
17686;SDS011;8962;52.538;13.266;2023-11-21T03:02:38;14.32;;;9.27;;
17686;SDS011;8962;52.538;13.266;2023-11-21T03:05:05;14.10;;;8.43;;
17686;SDS011;8962;52.538;13.266;2023-11-21T03:07:34;13.10;;;8.43;;
17686;SDS011;8962;52.538;13.266;2023-11-21T03:10:02;14.15;;;9.00;;
17686;SDS011;8962;52.538;13.266;2023-11-21T03:12:31;17.42;;;9.68;;
17686;SDS011;8962;52.538;13.266;2023-11-21T03:15:00;12.65;;;9.05;;
17686;SDS011;8962;52.538;13.266;2023-11-21T03:17:27;13.85;;;9.30;;
17686;SDS011;8962;52.538;13.266;2023-11-21T03:19:55;15.68;;;10.15;;
17686;SDS011;8962;52.538;13.266;2023-11-21T03:22:22;15.10;;;9.45;;
17686;SDS011;8962;52.538;13.266;2023-11-21T03:24:49;16.98;;;9.90;;
17686;SDS011;8962;52.538;13.266;2023-11-21T03:27:16;14.50;;;9.68;;
17686;SDS011;8962;52.538;13.266;2023-11-21T03:29:43;13.63;;;8.95;;
17686;SDS011;8962;52.538;13.266;2023-11-21T03:32:13;15.50;;;9.95;;
17686;SDS011;8962;52.538;13.266;2023-11-21T03:34:52;17.58;;;9.30;;
17686;SDS011;8962;52.538;13.266;2023-11-21T03:37:21;12.73;;;8.80;;
17686;SDS011;8962;52.538;13.266;2023-11-21T03:39:48;14.90;;;9.48;;
17686;SDS011;8962;52.538;13.266;2023-11-21T03:42:15;14.95;;;8.88;;
17686;SDS011;8962;52.538;13.266;2023-11-21T03:44:43;15.68;;;10.20;;
17686;SDS011;8962;52.538;13.266;2023-11-21T03:47:10;15.13;;;10.18;;
17686;SDS011;8962;52.538;13.266;2023-11-21T03:49:38;15.00;;;9.45;;
17686;SDS011;8962;52.538;13.266;2023-11-21T03:52:05;14.70;;;9.32;;
17686;SDS011;8962;52.538;13.266;2023-11-21T03:54:33;16.15;;;9.32;;
17686;SDS011;8962;52.538;13.266;2023-11-21T03:57:01;14.63;;;8.80;;
17686;SDS011;8962;52.538;13.266;2023-11-21T03:59:28;16.20;;;9.02;;
17686;SDS011;8962;52.538;13.266;2023-11-21T04:01:56;15.48;;;9.60;;
17686;SDS011;8962;52.538;13.266;2023-11-21T04:04:24;14.82;;;9.55;;
17686;SDS011;8962;52.538;13.266;2023-11-21T04:06:52;15.43;;;9.65;;
17686;SDS011;8962;52.538;13.266;2023-11-21T04:09:19;14.05;;;8.80;;
17686;SDS011;8962;52.538;13.266;2023-11-21T04:11:50;13.85;;;8.57;;
17686;SDS011;8962;52.538;13.266;2023-11-21T04:14:17;15.48;;;9.43;;
17686;SDS011;8962;52.538;13.266;2023-11-21T04:16:45;11.52;;;7.45;;
17686;SDS011;8962;52.538;13.266;2023-11-21T04:19:12;13.48;;;8.07;;
17686;SDS011;8962;52.538;13.266;2023-11-21T04:21:41;12.18;;;8.18;;
17686;SDS011;8962;52.538;13.266;2023-11-21T04:24:10;11.38;;;7.70;;
17686;SDS011;8962;52.538;13.266;2023-11-21T04:26:37;13.88;;;8.60;;
17686;SDS011;8962;52.538;13.266;2023-11-21T04:29:04;10.60;;;7.88;;
17686;SDS011;8962;52.538;13.266;2023-11-21T04:31:31;15.05;;;9.25;;
17686;SDS011;8962;52.538;13.266;2023-11-21T04:34:00;12.88;;;8.35;;
17686;SDS011;8962;52.538;13.266;2023-11-21T04:36:29;14.00;;;8.65;;
17686;SDS011;8962;52.538;13.266;2023-11-21T04:38:56;13.32;;;8.43;;
17686;SDS011;8962;52.538;13.266;2023-11-21T04:41:25;13.48;;;8.50;;
17686;SDS011;8962;52.538;13.266;2023-11-21T04:43:52;14.48;;;8.77;;
17686;SDS011;8962;52.538;13.266;2023-11-21T04:46:19;12.07;;;8.32;;
17686;SDS011;8962;52.538;13.266;2023-11-21T04:48:46;11.70;;;8.10;;
17686;SDS011;8962;52.538;13.266;2023-11-21T04:51:13;12.65;;;8.38;;
17686;SDS011;8962;52.538;13.266;2023-11-21T04:53:41;14.73;;;8.75;;
17686;SDS011;8962;52.538;13.266;2023-11-21T04:56:09;13.13;;;8.40;;
17686;SDS011;8962;52.538;13.266;2023-11-21T04:58:38;14.07;;;8.88;;
17686;SDS011;8962;52.538;13.266;2023-11-21T05:01:06;14.38;;;9.15;;
17686;SDS011;8962;52.538;13.266;2023-11-21T05:03:34;14.98;;;9.07;;
17686;SDS011;8962;52.538;13.266;2023-11-21T05:06:03;14.52;;;9.05;;
17686;SDS011;8962;52.538;13.266;2023-11-21T05:08:31;15.65;;;9.02;;
17686;SDS011;8962;52.538;13.266;2023-11-21T05:10:58;13.93;;;8.18;;
17686;SDS011;8962;52.538;13.266;2023-11-21T05:13:25;14.68;;;8.70;;
17686;SDS011;8962;52.538;13.266;2023-11-21T05:15:55;14.77;;;8.95;;
17686;SDS011;8962;52.538;13.266;2023-11-21T05:18:23;14.85;;;8.93;;
17686;SDS011;8962;52.538;13.266;2023-11-21T05:20:52;15.10;;;9.27;;
17686;SDS011;8962;52.538;13.266;2023-11-21T05:23:19;14.75;;;8.35;;
17686;SDS011;8962;52.538;13.266;2023-11-21T05:25:46;14.73;;;8.45;;
17686;SDS011;8962;52.538;13.266;2023-11-21T05:28:13;13.90;;;8.60;;
17686;SDS011;8962;52.538;13.266;2023-11-21T05:30:41;15.02;;;8.75;;
17686;SDS011;8962;52.538;13.266;2023-11-21T05:33:10;16.27;;;9.40;;
17686;SDS011;8962;52.538;13.266;2023-11-21T05:35:37;13.88;;;8.32;;
17686;SDS011;8962;52.538;13.266;2023-11-21T05:38:04;14.70;;;8.88;;
17686;SDS011;8962;52.538;13.266;2023-11-21T05:40:31;14.63;;;8.77;;
17686;SDS011;8962;52.538;13.266;2023-11-21T05:42:58;12.75;;;8.10;;
17686;SDS011;8962;52.538;13.266;2023-11-21T05:45:25;13.18;;;8.45;;
17686;SDS011;8962;52.538;13.266;2023-11-21T05:47:54;14.65;;;9.35;;
17686;SDS011;8962;52.538;13.266;2023-11-21T05:50:22;14.48;;;8.57;;
17686;SDS011;8962;52.538;13.266;2023-11-21T05:52:51;14.10;;;8.10;;
17686;SDS011;8962;52.538;13.266;2023-11-21T05:55:18;16.42;;;9.02;;
17686;SDS011;8962;52.538;13.266;2023-11-21T05:57:46;14.98;;;8.80;;
17686;SDS011;8962;52.538;13.266;2023-11-21T06:00:14;14.05;;;8.52;;
17686;SDS011;8962;52.538;13.266;2023-11-21T06:02:45;13.75;;;8.30;;
17686;SDS011;8962;52.538;13.266;2023-11-21T06:05:12;13.35;;;8.13;;
17686;SDS011;8962;52.538;13.266;2023-11-21T06:07:41;13.52;;;7.90;;
17686;SDS011;8962;52.538;13.266;2023-11-21T06:10:08;10.40;;;6.60;;
17686;SDS011;8962;52.538;13.266;2023-11-21T06:12:38;14.20;;;7.40;;
17686;SDS011;8962;52.538;13.266;2023-11-21T06:15:08;11.15;;;7.30;;
17686;SDS011;8962;52.538;13.266;2023-11-21T06:17:38;13.02;;;7.68;;
17686;SDS011;8962;52.538;13.266;2023-11-21T06:20:06;11.43;;;7.20;;
17686;SDS011;8962;52.538;13.266;2023-11-21T06:22:35;9.50;;;6.28;;
17686;SDS011;8962;52.538;13.266;2023-11-21T06:25:05;9.70;;;6.15;;
17686;SDS011;8962;52.538;13.266;2023-11-21T06:27:35;9.95;;;6.07;;
17686;SDS011;8962;52.538;13.266;2023-11-21T06:30:05;10.13;;;5.90;;
17686;SDS011;8962;52.538;13.266;2023-11-21T06:32:35;9.75;;;6.18;;
17686;SDS011;8962;52.538;13.266;2023-11-21T06:35:03;9.35;;;5.85;;
17686;SDS011;8962;52.538;13.266;2023-11-21T06:37:34;11.35;;;5.80;;
17686;SDS011;8962;52.538;13.266;2023-11-21T06:40:01;9.07;;;6.07;;
17686;SDS011;8962;52.538;13.266;2023-11-21T06:42:30;8.20;;;5.63;;
17686;SDS011;8962;52.538;13.266;2023-11-21T06:44:58;9.90;;;5.55;;
17686;SDS011;8962;52.538;13.266;2023-11-21T06:47:29;7.97;;;5.20;;
17686;SDS011;8962;52.538;13.266;2023-11-21T06:49:56;7.30;;;5.15;;
17686;SDS011;8962;52.538;13.266;2023-11-21T06:52:24;6.72;;;4.97;;
17686;SDS011;8962;52.538;13.266;2023-11-21T06:54:51;8.05;;;5.07;;
17686;SDS011;8962;52.538;13.266;2023-11-21T06:57:18;8.00;;;5.18;;
17686;SDS011;8962;52.538;13.266;2023-11-21T06:59:46;7.25;;;4.68;;
17686;SDS011;8962;52.538;13.266;2023-11-21T07:02:13;8.98;;;4.82;;
17686;SDS011;8962;52.538;13.266;2023-11-21T07:04:43;9.60;;;4.80;;
17686;SDS011;8962;52.538;13.266;2023-11-21T07:07:12;6.38;;;4.50;;
17686;SDS011;8962;52.538;13.266;2023-11-21T07:09:41;7.78;;;5.00;;
17686;SDS011;8962;52.538;13.266;2023-11-21T07:12:08;5.97;;;4.30;;
17686;SDS011;8962;52.538;13.266;2023-11-21T07:14:36;6.28;;;4.32;;
17686;SDS011;8962;52.538;13.266;2023-11-21T07:17:10;6.75;;;4.60;;
17686;SDS011;8962;52.538;13.266;2023-11-21T07:19:38;7.47;;;4.05;;
17686;SDS011;8962;52.538;13.266;2023-11-21T07:22:06;5.85;;;3.75;;
17686;SDS011;8962;52.538;13.266;2023-11-21T07:24:34;5.05;;;3.67;;
17686;SDS011;8962;52.538;13.266;2023-11-21T07:27:02;5.60;;;3.92;;
17686;SDS011;8962;52.538;13.266;2023-11-21T07:29:30;6.15;;;4.25;;
17686;SDS011;8962;52.538;13.266;2023-11-21T07:31:58;6.03;;;4.20;;
17686;SDS011;8962;52.538;13.266;2023-11-21T07:34:27;6.00;;;4.00;;
17686;SDS011;8962;52.538;13.266;2023-11-21T07:36:54;5.97;;;4.18;;
17686;SDS011;8962;52.538;13.266;2023-11-21T07:39:21;6.07;;;4.22;;
17686;SDS011;8962;52.538;13.266;2023-11-21T07:41:52;6.20;;;4.13;;
17686;SDS011;8962;52.538;13.266;2023-11-21T07:44:19;6.57;;;3.90;;
17686;SDS011;8962;52.538;13.266;2023-11-21T07:46:48;6.18;;;3.90;;
17686;SDS011;8962;52.538;13.266;2023-11-21T07:49:16;6.85;;;4.50;;
17686;SDS011;8962;52.538;13.266;2023-11-21T07:51:47;6.93;;;4.10;;
17686;SDS011;8962;52.538;13.266;2023-11-21T07:54:14;7.38;;;3.90;;
17686;SDS011;8962;52.538;13.266;2023-11-21T07:56:42;7.10;;;3.83;;
17686;SDS011;8962;52.538;13.266;2023-11-21T07:59:11;6.13;;;4.00;;
17686;SDS011;8962;52.538;13.266;2023-11-21T08:01:40;6.10;;;3.85;;
17686;SDS011;8962;52.538;13.266;2023-11-21T08:04:09;5.97;;;3.97;;
17686;SDS011;8962;52.538;13.266;2023-11-21T08:06:38;5.32;;;3.90;;
17686;SDS011;8962;52.538;13.266;2023-11-21T08:09:08;7.03;;;4.28;;
17686;SDS011;8962;52.538;13.266;2023-11-21T08:11:37;5.63;;;3.78;;
17686;SDS011;8962;52.538;13.266;2023-11-21T08:14:04;7.85;;;4.03;;
17686;SDS011;8962;52.538;13.266;2023-11-21T08:16:31;6.63;;;4.47;;
17686;SDS011;8962;52.538;13.266;2023-11-21T08:18:58;7.32;;;4.53;;
17686;SDS011;8962;52.538;13.266;2023-11-21T08:21:26;7.15;;;4.20;;
17686;SDS011;8962;52.538;13.266;2023-11-21T08:23:54;6.72;;;4.20;;
17686;SDS011;8962;52.538;13.266;2023-11-21T08:26:23;6.90;;;4.82;;
17686;SDS011;8962;52.538;13.266;2023-11-21T08:28:50;7.10;;;4.70;;
17686;SDS011;8962;52.538;13.266;2023-11-21T08:31:23;8.23;;;4.93;;
17686;SDS011;8962;52.538;13.266;2023-11-21T08:33:54;7.90;;;4.97;;
17686;SDS011;8962;52.538;13.266;2023-11-21T08:36:25;6.60;;;4.65;;
17686;SDS011;8962;52.538;13.266;2023-11-21T08:38:58;7.55;;;5.00;;
17686;SDS011;8962;52.538;13.266;2023-11-21T08:41:26;7.68;;;4.63;;
17686;SDS011;8962;52.538;13.266;2023-11-21T08:43:53;6.82;;;4.80;;
17686;SDS011;8962;52.538;13.266;2023-11-21T08:46:21;6.05;;;4.47;;
17686;SDS011;8962;52.538;13.266;2023-11-21T08:48:48;7.35;;;4.72;;
17686;SDS011;8962;52.538;13.266;2023-11-21T08:51:18;7.40;;;4.90;;
17686;SDS011;8962;52.538;13.266;2023-11-21T08:53:45;6.15;;;4.07;;
17686;SDS011;8962;52.538;13.266;2023-11-21T08:56:12;6.22;;;3.92;;
17686;SDS011;8962;52.538;13.266;2023-11-21T08:58:45;5.65;;;4.00;;
17686;SDS011;8962;52.538;13.266;2023-11-21T09:01:12;5.97;;;4.03;;
17686;SDS011;8962;52.538;13.266;2023-11-21T09:03:39;7.22;;;4.47;;
17686;SDS011;8962;52.538;13.266;2023-11-21T09:06:09;5.72;;;4.25;;
17686;SDS011;8962;52.538;13.266;2023-11-21T09:08:36;6.22;;;4.03;;
17686;SDS011;8962;52.538;13.266;2023-11-21T09:11:03;5.60;;;4.05;;
17686;SDS011;8962;52.538;13.266;2023-11-21T09:13:30;5.57;;;3.92;;
17686;SDS011;8962;52.538;13.266;2023-11-21T09:15:59;5.65;;;3.60;;
17686;SDS011;8962;52.538;13.266;2023-11-21T09:18:26;6.25;;;4.00;;
17686;SDS011;8962;52.538;13.266;2023-11-21T09:20:53;5.88;;;4.00;;
17686;SDS011;8962;52.538;13.266;2023-11-21T09:23:20;5.40;;;3.80;;
17686;SDS011;8962;52.538;13.266;2023-11-21T09:25:47;5.60;;;4.03;;
17686;SDS011;8962;52.538;13.266;2023-11-21T09:28:15;7.38;;;4.10;;
17686;SDS011;8962;52.538;13.266;2023-11-21T09:30:42;6.47;;;4.40;;
17686;SDS011;8962;52.538;13.266;2023-11-21T09:33:11;7.47;;;4.18;;
17686;SDS011;8962;52.538;13.266;2023-11-21T09:35:38;5.70;;;3.95;;
17686;SDS011;8962;52.538;13.266;2023-11-21T09:38:05;6.32;;;4.03;;
17686;SDS011;8962;52.538;13.266;2023-11-21T09:40:35;7.30;;;3.90;;
17686;SDS011;8962;52.538;13.266;2023-11-21T09:43:04;8.73;;;4.20;;
17686;SDS011;8962;52.538;13.266;2023-11-21T09:45:41;6.68;;;4.40;;
17686;SDS011;8962;52.538;13.266;2023-11-21T09:48:13;5.82;;;4.03;;
17686;SDS011;8962;52.538;13.266;2023-11-21T09:50:43;7.72;;;4.55;;
17686;SDS011;8962;52.538;13.266;2023-11-21T09:53:13;6.95;;;4.25;;
17686;SDS011;8962;52.538;13.266;2023-11-21T09:55:47;7.95;;;4.65;;
17686;SDS011;8962;52.538;13.266;2023-11-21T09:58:16;7.88;;;4.30;;
17686;SDS011;8962;52.538;13.266;2023-11-21T10:00:44;7.47;;;4.15;;
17686;SDS011;8962;52.538;13.266;2023-11-21T10:03:14;6.70;;;4.47;;
17686;SDS011;8962;52.538;13.266;2023-11-21T10:05:41;6.97;;;4.65;;
17686;SDS011;8962;52.538;13.266;2023-11-21T10:08:11;9.68;;;5.13;;
17686;SDS011;8962;52.538;13.266;2023-11-21T10:10:42;8.07;;;4.32;;
17686;SDS011;8962;52.538;13.266;2023-11-21T10:13:11;6.97;;;4.57;;
17686;SDS011;8962;52.538;13.266;2023-11-21T10:15:41;7.10;;;4.20;;
17686;SDS011;8962;52.538;13.266;2023-11-21T10:18:14;7.53;;;4.70;;
17686;SDS011;8962;52.538;13.266;2023-11-21T10:20:42;6.55;;;4.32;;
17686;SDS011;8962;52.538;13.266;2023-11-21T10:23:17;6.53;;;4.32;;
17686;SDS011;8962;52.538;13.266;2023-11-21T10:25:47;7.70;;;4.63;;
17686;SDS011;8962;52.538;13.266;2023-11-21T10:28:14;8.35;;;5.13;;
17686;SDS011;8962;52.538;13.266;2023-11-21T10:30:41;7.60;;;4.70;;
17686;SDS011;8962;52.538;13.266;2023-11-21T10:33:09;8.38;;;4.82;;
17686;SDS011;8962;52.538;13.266;2023-11-21T10:35:43;10.00;;;5.35;;
17686;SDS011;8962;52.538;13.266;2023-11-21T10:38:15;9.70;;;5.68;;
17686;SDS011;8962;52.538;13.266;2023-11-21T10:40:43;9.70;;;5.50;;
17686;SDS011;8962;52.538;13.266;2023-11-21T10:43:12;9.05;;;5.25;;
17686;SDS011;8962;52.538;13.266;2023-11-21T10:45:40;8.63;;;5.28;;
17686;SDS011;8962;52.538;13.266;2023-11-21T10:48:09;8.23;;;5.28;;
17686;SDS011;8962;52.538;13.266;2023-11-21T10:50:41;10.00;;;5.55;;
17686;SDS011;8962;52.538;13.266;2023-11-21T10:53:10;12.50;;;6.25;;
17686;SDS011;8962;52.538;13.266;2023-11-21T10:55:38;12.50;;;6.90;;
17686;SDS011;8962;52.538;13.266;2023-11-21T10:58:05;10.98;;;6.32;;
17686;SDS011;8962;52.538;13.266;2023-11-21T11:00:35;12.63;;;6.65;;
17686;SDS011;8962;52.538;13.266;2023-11-21T11:03:05;13.40;;;7.05;;
17686;SDS011;8962;52.538;13.266;2023-11-21T11:05:39;12.32;;;6.97;;
17686;SDS011;8962;52.538;13.266;2023-11-21T11:08:13;12.60;;;7.03;;
17686;SDS011;8962;52.538;13.266;2023-11-21T11:10:45;11.57;;;6.40;;
17686;SDS011;8962;52.538;13.266;2023-11-21T11:13:14;10.52;;;6.32;;
17686;SDS011;8962;52.538;13.266;2023-11-21T11:15:41;11.05;;;6.10;;
17686;SDS011;8962;52.538;13.266;2023-11-21T11:18:11;11.05;;;6.35;;
17686;SDS011;8962;52.538;13.266;2023-11-21T11:20:39;11.73;;;6.63;;
17686;SDS011;8962;52.538;13.266;2023-11-21T11:23:13;10.00;;;5.28;;
17686;SDS011;8962;52.538;13.266;2023-11-21T11:25:57;10.85;;;5.22;;
17686;SDS011;8962;52.538;13.266;2023-11-21T11:28:35;9.35;;;5.53;;
17686;SDS011;8962;52.538;13.266;2023-11-21T11:31:14;10.38;;;5.75;;
17686;SDS011;8962;52.538;13.266;2023-11-21T11:33:51;12.30;;;5.50;;
17686;SDS011;8962;52.538;13.266;2023-11-21T11:36:25;10.98;;;5.53;;
17686;SDS011;8962;52.538;13.266;2023-11-21T11:38:57;12.73;;;5.63;;
17686;SDS011;8962;52.538;13.266;2023-11-21T11:41:29;12.35;;;6.30;;
17686;SDS011;8962;52.538;13.266;2023-11-21T11:44:00;9.88;;;5.43;;
17686;SDS011;8962;52.538;13.266;2023-11-21T11:49:23;13.18;;;5.75;;
17686;SDS011;8962;52.538;13.266;2023-11-21T11:54:54;11.05;;;5.53;;
17686;SDS011;8962;52.538;13.266;2023-11-21T11:57:23;9.80;;;4.65;;
17686;SDS011;8962;52.538;13.266;2023-11-21T12:00:13;9.18;;;4.65;;
17686;SDS011;8962;52.538;13.266;2023-11-21T12:02:45;10.57;;;4.53;;
17686;SDS011;8962;52.538;13.266;2023-11-21T12:05:14;8.85;;;4.47;;
17686;SDS011;8962;52.538;13.266;2023-11-21T12:07:46;8.00;;;4.40;;
17686;SDS011;8962;52.538;13.266;2023-11-21T12:10:19;8.30;;;4.05;;
17686;SDS011;8962;52.538;13.266;2023-11-21T12:12:50;7.57;;;4.22;;
17686;SDS011;8962;52.538;13.266;2023-11-21T12:15:18;11.07;;;5.63;;
17686;SDS011;8962;52.538;13.266;2023-11-21T12:17:47;9.45;;;5.47;;
17686;SDS011;8962;52.538;13.266;2023-11-21T12:20:18;10.68;;;6.22;;
17686;SDS011;8962;52.538;13.266;2023-11-21T12:22:47;11.77;;;5.88;;
17686;SDS011;8962;52.538;13.266;2023-11-21T12:25:16;17.63;;;7.93;;
17686;SDS011;8962;52.538;13.266;2023-11-21T12:27:50;14.38;;;6.28;;
17686;SDS011;8962;52.538;13.266;2023-11-21T12:30:18;12.38;;;5.88;;
17686;SDS011;8962;52.538;13.266;2023-11-21T12:32:48;8.60;;;5.20;;
17686;SDS011;8962;52.538;13.266;2023-11-21T12:35:17;9.15;;;4.90;;
17686;SDS011;8962;52.538;13.266;2023-11-21T12:37:46;8.88;;;5.13;;
17686;SDS011;8962;52.538;13.266;2023-11-21T12:40:14;8.82;;;4.95;;
17686;SDS011;8962;52.538;13.266;2023-11-21T12:42:44;7.13;;;4.80;;
17686;SDS011;8962;52.538;13.266;2023-11-21T12:45:21;8.02;;;4.50;;
17686;SDS011;8962;52.538;13.266;2023-11-21T12:47:51;9.38;;;4.95;;
17686;SDS011;8962;52.538;13.266;2023-11-21T12:50:20;7.63;;;5.13;;
17686;SDS011;8962;52.538;13.266;2023-11-21T12:52:52;7.95;;;4.78;;
17686;SDS011;8962;52.538;13.266;2023-11-21T12:55:23;8.95;;;5.18;;
17686;SDS011;8962;52.538;13.266;2023-11-21T12:57:55;10.23;;;5.28;;
17686;SDS011;8962;52.538;13.266;2023-11-21T13:00:27;11.90;;;5.82;;
17686;SDS011;8962;52.538;13.266;2023-11-21T13:02:59;15.40;;;7.13;;
17686;SDS011;8962;52.538;13.266;2023-11-21T13:05:28;13.05;;;6.43;;
17686;SDS011;8962;52.538;13.266;2023-11-21T13:07:56;11.32;;;5.88;;
17686;SDS011;8962;52.538;13.266;2023-11-21T13:10:30;11.77;;;6.47;;
17686;SDS011;8962;52.538;13.266;2023-11-21T13:13:02;14.82;;;7.35;;
17686;SDS011;8962;52.538;13.266;2023-11-21T13:15:33;12.07;;;6.57;;
17686;SDS011;8962;52.538;13.266;2023-11-21T13:18:01;11.93;;;7.18;;
17686;SDS011;8962;52.538;13.266;2023-11-21T13:20:29;11.02;;;7.03;;
17686;SDS011;8962;52.538;13.266;2023-11-21T13:22:59;12.30;;;6.90;;
17686;SDS011;8962;52.538;13.266;2023-11-21T13:25:27;12.23;;;7.15;;
17686;SDS011;8962;52.538;13.266;2023-11-21T13:27:56;13.93;;;7.85;;
17686;SDS011;8962;52.538;13.266;2023-11-21T13:30:25;13.65;;;8.02;;
17686;SDS011;8962;52.538;13.266;2023-11-21T13:32:58;15.48;;;8.65;;
17686;SDS011;8962;52.538;13.266;2023-11-21T13:35:27;14.80;;;8.57;;
17686;SDS011;8962;52.538;13.266;2023-11-21T13:38:03;16.42;;;9.07;;
17686;SDS011;8962;52.538;13.266;2023-11-21T13:40:32;22.73;;;11.25;;
17686;SDS011;8962;52.538;13.266;2023-11-21T13:43:05;23.33;;;11.02;;
17686;SDS011;8962;52.538;13.266;2023-11-21T13:45:37;25.42;;;11.95;;
17686;SDS011;8962;52.538;13.266;2023-11-21T13:48:06;26.08;;;12.52;;
17686;SDS011;8962;52.538;13.266;2023-11-21T13:50:35;26.33;;;12.82;;
17686;SDS011;8962;52.538;13.266;2023-11-21T13:53:02;25.42;;;13.05;;
17686;SDS011;8962;52.538;13.266;2023-11-21T13:55:36;30.13;;;15.13;;
17686;SDS011;8962;52.538;13.266;2023-11-21T13:58:04;27.63;;;13.30;;
17686;SDS011;8962;52.538;13.266;2023-11-21T14:00:38;30.40;;;13.88;;
17686;SDS011;8962;52.538;13.266;2023-11-21T14:03:10;28.73;;;13.15;;
17686;SDS011;8962;52.538;13.266;2023-11-21T14:05:46;24.50;;;12.13;;
17686;SDS011;8962;52.538;13.266;2023-11-21T14:08:16;24.35;;;11.98;;
17686;SDS011;8962;52.538;13.266;2023-11-21T14:10:53;24.77;;;12.40;;
17686;SDS011;8962;52.538;13.266;2023-11-21T14:13:22;33.40;;;13.88;;
17686;SDS011;8962;52.538;13.266;2023-11-21T14:15:51;33.92;;;14.02;;
17686;SDS011;8962;52.538;13.266;2023-11-21T14:18:23;29.77;;;14.15;;
17686;SDS011;8962;52.538;13.266;2023-11-21T14:20:55;33.28;;;15.48;;
17686;SDS011;8962;52.538;13.266;2023-11-21T14:23:23;34.03;;;15.68;;
17686;SDS011;8962;52.538;13.266;2023-11-21T14:25:50;34.08;;;15.65;;
17686;SDS011;8962;52.538;13.266;2023-11-21T14:28:19;30.80;;;16.00;;
17686;SDS011;8962;52.538;13.266;2023-11-21T14:30:48;42.78;;;18.80;;
17686;SDS011;8962;52.538;13.266;2023-11-21T14:33:16;33.33;;;17.05;;
17686;SDS011;8962;52.538;13.266;2023-11-21T14:35:44;32.60;;;16.67;;
17686;SDS011;8962;52.538;13.266;2023-11-21T14:38:12;33.45;;;17.38;;
17686;SDS011;8962;52.538;13.266;2023-11-21T14:40:39;31.50;;;16.50;;
17686;SDS011;8962;52.538;13.266;2023-11-21T14:43:08;36.33;;;17.27;;
17686;SDS011;8962;52.538;13.266;2023-11-21T14:45:35;33.65;;;17.55;;
17686;SDS011;8962;52.538;13.266;2023-11-21T14:48:03;29.35;;;15.95;;
17686;SDS011;8962;52.538;13.266;2023-11-21T14:50:42;28.42;;;15.40;;
17686;SDS011;8962;52.538;13.266;2023-11-21T14:53:31;24.42;;;14.52;;
17686;SDS011;8962;52.538;13.266;2023-11-21T14:56:09;25.95;;;15.10;;
17686;SDS011;8962;52.538;13.266;2023-11-21T14:58:46;23.25;;;13.70;;
17686;SDS011;8962;52.538;13.266;2023-11-21T15:01:14;24.67;;;13.40;;
17686;SDS011;8962;52.538;13.266;2023-11-21T15:03:52;21.70;;;13.07;;
17686;SDS011;8962;52.538;13.266;2023-11-21T15:06:22;19.65;;;12.45;;
17686;SDS011;8962;52.538;13.266;2023-11-21T15:08:55;21.65;;;12.55;;
17686;SDS011;8962;52.538;13.266;2023-11-21T15:11:54;18.00;;;12.25;;